createdAt,value
2023-02-15T00:01:54.147Z,99.90
2023-02-15T00:04:23.115Z,99.90
2023-02-15T00:06:50.743Z,99.90
2023-02-15T00:09:17.632Z,99.90
2023-02-15T00:11:46.040Z,99.90
2023-02-15T00:14:18.836Z,99.90
2023-02-15T00:16:46.263Z,99.90
2023-02-15T00:19:15.134Z,99.90
2023-02-15T00:21:42.427Z,99.90
2023-02-15T00:24:11.413Z,99.90
2023-02-15T00:26:40.481Z,99.90
2023-02-15T00:29:08.013Z,99.90
2023-02-15T00:31:35.544Z,99.90
2023-02-15T00:34:07.971Z,99.90
2023-02-15T00:36:34.953Z,99.90
2023-02-15T00:39:01.721Z,99.90
2023-02-15T00:41:28.485Z,99.90
2023-02-15T00:43:55.170Z,99.90
2023-02-15T00:46:21.911Z,99.90
2023-02-15T00:48:48.707Z,99.90
2023-02-15T00:51:15.716Z,99.90
2023-02-15T00:53:42.471Z,99.90
2023-02-15T00:56:09.220Z,99.90
2023-02-15T00:58:35.898Z,99.90
2023-02-15T01:01:11.820Z,99.90
2023-02-15T01:03:39.470Z,99.90
2023-02-15T01:06:06.483Z,99.90
2023-02-15T01:08:33.183Z,99.90
2023-02-15T01:11:08.867Z,99.90
2023-02-15T01:13:36.088Z,99.90
2023-02-15T01:16:04.560Z,99.90
2023-02-15T01:18:32.029Z,99.90
2023-02-15T01:20:58.776Z,99.90
2023-02-15T01:23:25.484Z,99.90
2023-02-15T01:25:52.220Z,99.90
2023-02-15T01:28:19.018Z,99.90
2023-02-15T01:30:45.792Z,99.90
2023-02-15T01:33:18.828Z,99.90
2023-02-15T01:35:47.233Z,99.90
2023-02-15T01:38:15.575Z,99.90
2023-02-15T01:40:42.869Z,99.90
2023-02-15T01:43:13.498Z,99.90
2023-02-15T01:45:40.820Z,99.90
2023-02-15T01:48:23.723Z,99.90
2023-02-15T01:50:59.942Z,99.90
2023-02-15T01:53:37.931Z,99.90
2023-02-15T01:56:14.308Z,99.90
2023-02-15T01:58:41.806Z,99.90
2023-02-15T02:01:09.938Z,99.90
2023-02-15T02:03:55.504Z,99.90
2023-02-15T02:06:22.286Z,99.90
2023-02-15T02:08:49.802Z,99.90
2023-02-15T02:11:16.576Z,99.90
2023-02-15T02:13:45.462Z,99.90
2023-02-15T02:16:24.276Z,99.90
2023-02-15T02:19:34.127Z,99.90
2023-02-15T02:22:28.693Z,99.90
2023-02-15T02:25:04.236Z,99.90
2023-02-15T02:27:43.350Z,99.90
2023-02-15T02:30:49.138Z,99.90
2023-02-15T02:33:29.176Z,99.90
2023-02-15T02:36:07.639Z,99.90
2023-02-15T02:39:03.441Z,99.90
2023-02-15T02:41:48.944Z,99.90
2023-02-15T02:44:23.321Z,99.90
2023-02-15T02:46:58.911Z,99.90
2023-02-15T02:49:36.882Z,99.90
2023-02-15T02:52:07.588Z,99.90
2023-02-15T02:54:36.621Z,99.90
2023-02-15T02:57:10.141Z,99.90
2023-02-15T02:59:45.325Z,99.90
2023-02-15T03:02:18.600Z,99.90
2023-02-15T03:04:50.359Z,99.90
2023-02-15T03:07:23.048Z,99.90
2023-02-15T03:09:56.350Z,99.90
2023-02-15T03:12:28.178Z,99.90
2023-02-15T03:15:07.595Z,99.90
2023-02-15T03:17:38.845Z,99.90
2023-02-15T03:23:02.310Z,99.90
2023-02-15T03:25:39.655Z,99.90
2023-02-15T03:28:19.963Z,99.90
2023-02-15T03:30:53.169Z,99.90
2023-02-15T03:33:22.624Z,99.90
2023-02-15T03:36:12.885Z,99.90
2023-02-15T03:39:08.574Z,99.90
2023-02-15T03:41:41.770Z,99.90
2023-02-15T03:44:16.642Z,99.90
2023-02-15T03:46:49.440Z,99.90
2023-02-15T03:49:23.463Z,99.90
2023-02-15T03:51:53.258Z,99.90
2023-02-15T03:54:44.547Z,99.90
2023-02-15T03:57:45.733Z,99.90
2023-02-15T04:00:35.616Z,99.90
2023-02-15T04:03:09.876Z,99.90
2023-02-15T04:05:36.678Z,99.90
2023-02-15T04:08:04.159Z,99.90
2023-02-15T04:10:49.674Z,99.90
2023-02-15T04:13:16.341Z,99.90
2023-02-15T04:16:01.956Z,99.90
2023-02-15T04:18:47.602Z,99.90
2023-02-15T04:21:33.228Z,99.90
2023-02-15T04:24:18.788Z,99.90
2023-02-15T04:26:45.716Z,99.90
2023-02-15T04:29:12.818Z,99.90
2023-02-15T04:31:39.632Z,99.90
2023-02-15T04:34:06.389Z,99.90
2023-02-15T04:36:33.111Z,99.90
2023-02-15T04:38:59.829Z,99.90
2023-02-15T04:41:26.570Z,99.90
2023-02-15T04:43:53.374Z,99.90
2023-02-15T04:46:20.176Z,99.90
2023-02-15T04:48:46.928Z,99.90
2023-02-15T04:51:13.677Z,99.90
2023-02-15T04:53:40.523Z,99.90
2023-02-15T04:56:07.235Z,99.90
2023-02-15T04:58:33.996Z,99.90
2023-02-15T05:01:01.482Z,99.90
2023-02-15T05:03:28.192Z,99.90
2023-02-15T05:05:54.885Z,99.90
2023-02-15T05:08:21.799Z,99.90
2023-02-15T05:10:51.354Z,99.90
2023-02-15T05:13:18.192Z,99.90
2023-02-15T05:15:52.608Z,99.90
2023-02-15T05:18:20.814Z,99.90
2023-02-15T05:20:47.995Z,99.90
2023-02-15T05:23:14.976Z,99.90
2023-02-15T05:26:00.830Z,99.90
2023-02-15T05:28:28.872Z,99.90
2023-02-15T05:31:09.206Z,99.90
2023-02-15T05:33:36.544Z,99.90
2023-02-15T05:36:04.130Z,99.90
2023-02-15T05:38:31.858Z,99.90
2023-02-15T05:40:59.290Z,99.90
2023-02-15T05:43:26.800Z,99.90
2023-02-15T05:45:55.461Z,99.90
2023-02-15T05:48:24.830Z,99.90
2023-02-15T05:51:03.166Z,99.90
2023-02-15T05:53:32.201Z,99.90
2023-02-15T05:56:03.387Z,99.90
2023-02-15T05:58:36.040Z,99.90
2023-02-15T06:01:18.255Z,99.90
2023-02-15T06:03:46.686Z,99.90
2023-02-15T06:06:13.752Z,99.90
2023-02-15T06:08:40.610Z,99.90
2023-02-15T06:11:08.066Z,99.90
2023-02-15T06:13:38.393Z,99.90
2023-02-15T06:16:06.467Z,99.90
2023-02-15T06:18:33.329Z,99.90
2023-02-15T06:21:00.263Z,99.90
2023-02-15T06:23:27.113Z,99.90
2023-02-15T06:25:53.906Z,99.90
2023-02-15T06:28:20.622Z,99.90
2023-02-15T06:30:47.942Z,99.90
2023-02-15T06:33:14.872Z,99.90
2023-02-15T06:35:41.632Z,99.90
2023-02-15T06:38:08.325Z,99.90
2023-02-15T06:40:35.042Z,99.90
2023-02-15T06:43:01.801Z,99.90
2023-02-15T06:45:28.792Z,99.90
2023-02-15T06:47:55.523Z,99.90
2023-02-15T06:50:22.217Z,99.90
2023-02-15T06:52:48.986Z,99.90
2023-02-15T06:55:15.930Z,99.90
2023-02-15T06:57:42.676Z,99.90
2023-02-15T07:00:09.986Z,99.90
2023-02-15T07:02:36.690Z,99.90
2023-02-15T07:05:05.263Z,99.90
2023-02-15T07:07:32.132Z,99.90
2023-02-15T07:09:58.800Z,99.90
2023-02-15T07:12:43.760Z,99.90
2023-02-15T07:15:12.316Z,99.90
2023-02-15T07:17:39.424Z,99.90
2023-02-15T07:20:18.673Z,99.90
2023-02-15T07:22:46.110Z,99.90
2023-02-15T07:25:13.405Z,99.90
2023-02-15T07:27:41.111Z,99.90
2023-02-15T07:30:10.943Z,99.90
2023-02-15T07:32:58.151Z,99.90
2023-02-15T07:35:25.106Z,99.90
2023-02-15T07:37:51.984Z,99.90
2023-02-15T07:40:18.801Z,99.90
2023-02-15T07:42:45.517Z,99.90
2023-02-15T07:45:12.251Z,99.90
2023-02-15T07:47:39.150Z,99.90
2023-02-15T07:50:06.632Z,99.90
2023-02-15T07:52:33.438Z,99.90
2023-02-15T07:55:00.143Z,99.90
2023-02-15T07:57:26.897Z,99.90
2023-02-15T07:59:53.644Z,99.90
2023-02-15T08:02:20.340Z,99.90
2023-02-15T08:04:47.074Z,99.90
2023-02-15T08:07:13.785Z,99.90
2023-02-15T08:09:40.538Z,99.90
2023-02-15T08:12:07.481Z,99.90
2023-02-15T08:14:34.215Z,99.90
2023-02-15T08:17:04.646Z,99.90
2023-02-15T08:19:33.226Z,99.90
2023-02-15T08:22:12.884Z,99.90
2023-02-15T08:24:39.849Z,99.90
2023-02-15T08:27:08.539Z,99.90
2023-02-15T08:29:37.115Z,99.90
2023-02-15T08:32:07.708Z,99.90
2023-02-15T08:34:37.317Z,99.90
2023-02-15T08:37:04.398Z,99.90
2023-02-15T08:39:31.128Z,99.90
2023-02-15T08:41:58.016Z,99.90
2023-02-15T08:44:25.111Z,99.90
2023-02-15T08:46:52.056Z,99.90
2023-02-15T08:49:21.961Z,99.90
2023-02-15T08:51:50.019Z,99.90
2023-02-15T08:54:19.240Z,99.90
2023-02-15T08:56:46.611Z,99.90
2023-02-15T08:59:16.145Z,99.90
2023-02-15T09:01:43.564Z,99.90
2023-02-15T09:04:10.996Z,99.90
2023-02-15T09:06:39.477Z,99.90
2023-02-15T09:09:07.179Z,99.90
2023-02-15T09:11:43.113Z,99.90
2023-02-15T09:14:14.571Z,99.90
2023-02-15T09:16:43.604Z,99.90
2023-02-15T09:19:10.351Z,99.90
2023-02-15T09:21:39.461Z,99.90
2023-02-15T09:24:09.591Z,99.90
2023-02-15T09:26:40.282Z,99.90
2023-02-15T09:29:07.226Z,99.90
2023-02-15T09:31:38.315Z,99.90
2023-02-15T09:34:05.121Z,99.90
2023-02-15T09:36:34.523Z,99.90
2023-02-15T09:39:23.487Z,99.90
2023-02-15T09:41:53.678Z,99.90
2023-02-15T09:44:28.918Z,99.90
2023-02-15T09:47:18.064Z,99.90
2023-02-15T09:49:59.764Z,99.90
2023-02-15T09:52:43.415Z,99.90
2023-02-15T09:55:12.955Z,99.90
2023-02-15T09:57:51.692Z,99.90
2023-02-15T10:00:29.863Z,99.90
2023-02-15T10:03:12.944Z,99.90
2023-02-15T10:05:51.470Z,99.90
2023-02-15T10:09:00.521Z,99.90
2023-02-15T10:11:42.823Z,99.90
2023-02-15T10:14:40.926Z,99.90
2023-02-15T10:17:28.675Z,99.90
2023-02-15T10:19:58.945Z,99.90
2023-02-15T10:22:39.982Z,99.90
2023-02-15T10:25:13.226Z,99.90
2023-02-15T10:27:51.034Z,99.90
2023-02-15T10:31:01.419Z,99.90
2023-02-15T10:33:41.502Z,99.90
2023-02-15T10:36:29.534Z,99.90
2023-02-15T10:39:12.137Z,99.90
2023-02-15T10:42:03.124Z,99.90
2023-02-15T10:45:11.943Z,99.90
2023-02-15T11:07:25.208Z,99.90
2023-02-15T11:10:02.139Z,99.90
2023-02-15T11:12:31.915Z,99.90
2023-02-15T11:15:01.454Z,99.90
2023-02-15T11:17:42.678Z,99.90
2023-02-15T11:20:44.167Z,99.90
2023-02-15T11:23:17.263Z,99.90
2023-02-15T11:25:48.469Z,90.20
2023-02-15T11:28:33.134Z,92.90
2023-02-15T11:31:04.493Z,80.70
2023-02-15T11:33:39.437Z,70.90
2023-02-15T11:36:23.507Z,58.90
2023-02-15T11:38:55.882Z,65.80
2023-02-15T11:41:28.262Z,51.10
2023-02-15T11:44:24.306Z,45.70
2023-02-15T11:46:51.217Z,58.00
2023-02-15T11:49:25.735Z,56.30
2023-02-15T11:51:54.190Z,47.40
2023-02-15T11:54:26.916Z,41.90
2023-02-15T11:56:54.562Z,46.10
2023-02-15T11:59:29.279Z,41.70
2023-02-15T12:01:56.057Z,25.50
2023-02-15T12:04:35.763Z,11.40
2023-02-15T12:07:45.899Z,7.50
2023-02-15T12:10:21.146Z,15.10
2023-02-15T12:12:47.978Z,4.30
2023-02-15T12:15:18.272Z,5.70
2023-02-15T12:17:55.512Z,3.40
2023-02-15T12:20:35.836Z,1.00
2023-02-15T12:23:06.529Z,1.00
2023-02-15T12:25:36.356Z,1.00
2023-02-15T12:28:04.246Z,1.00
2023-02-15T12:30:37.608Z,1.00
2023-02-15T12:33:22.874Z,1.00
2023-02-15T12:36:11.620Z,1.00
2023-02-15T12:38:38.441Z,1.00
2023-02-15T12:41:22.961Z,1.00
2023-02-15T12:44:15.405Z,1.00
2023-02-15T12:46:42.364Z,1.00
2023-02-15T12:49:21.239Z,1.00
2023-02-15T12:51:57.193Z,1.00
2023-02-15T12:54:23.969Z,1.00
2023-02-15T12:56:50.927Z,1.00
2023-02-15T12:59:23.310Z,1.00
2023-02-15T13:01:52.245Z,1.00
2023-02-15T13:04:27.192Z,1.00
2023-02-15T13:09:33.026Z,1.00
2023-02-15T13:12:28.709Z,1.00
2023-02-15T13:14:56.362Z,1.00
2023-02-15T13:17:30.581Z,1.00
2023-02-15T13:20:02.287Z,1.00
2023-02-15T13:22:44.009Z,1.00
2023-02-15T13:25:23.679Z,1.00
2023-02-15T13:27:54.255Z,1.00
2023-02-15T13:30:30.208Z,1.00
2023-02-15T13:33:03.105Z,1.00
2023-02-15T13:35:40.814Z,1.00
2023-02-15T13:38:20.269Z,1.00
2023-02-15T13:40:59.681Z,1.00
2023-02-15T13:43:32.087Z,1.00
2023-02-15T13:46:11.731Z,1.00
2023-02-15T13:49:10.695Z,1.00
2023-02-15T13:51:46.271Z,1.00
2023-02-15T13:54:24.829Z,1.00
2023-02-15T13:57:06.914Z,1.00
2023-02-15T13:59:50.023Z,1.00
2023-02-15T14:02:44.963Z,1.00
2023-02-15T14:05:39.119Z,1.00
2023-02-15T14:08:21.682Z,1.00
2023-02-15T14:10:56.102Z,1.00
2023-02-15T14:13:44.712Z,1.00
2023-02-15T14:16:34.790Z,1.00
2023-02-15T14:19:34.898Z,1.00
2023-02-15T14:22:17.410Z,1.00
2023-02-15T14:24:59.100Z,1.00
2023-02-15T14:27:39.563Z,1.00
2023-02-15T14:30:17.233Z,1.00
2023-02-15T14:32:48.933Z,1.00
2023-02-15T14:35:22.666Z,1.00
2023-02-15T14:38:05.970Z,1.00
2023-02-15T14:41:08.637Z,1.00
2023-02-15T14:43:57.662Z,1.00
2023-02-15T14:46:44.101Z,1.00
2023-02-15T14:49:17.640Z,1.00
2023-02-15T14:51:44.323Z,1.00
2023-02-15T14:54:34.183Z,1.00
2023-02-15T14:57:04.013Z,1.00
2023-02-15T14:59:58.529Z,1.00
2023-02-15T15:02:40.261Z,1.00
2023-02-15T15:05:30.710Z,1.00
2023-02-15T15:08:00.702Z,1.00
2023-02-15T15:10:27.417Z,1.00
2023-02-15T15:12:58.362Z,1.00
2023-02-15T15:15:27.853Z,1.00
2023-02-15T15:17:57.136Z,1.00
2023-02-15T15:20:41.954Z,1.00
2023-02-15T15:23:17.751Z,1.00
2023-02-15T15:26:04.930Z,1.00
2023-02-15T15:28:34.662Z,1.00
2023-02-15T15:31:25.538Z,1.00
2023-02-15T15:34:22.613Z,1.00
2023-02-15T15:37:18.106Z,1.00
2023-02-15T15:40:22.569Z,1.00
2023-02-15T15:43:10.372Z,1.00
2023-02-15T15:46:12.181Z,1.00
2023-02-15T15:48:41.356Z,1.00
2023-02-15T15:51:19.533Z,1.00
2023-02-15T15:53:51.451Z,1.00
2023-02-15T15:56:23.885Z,1.00
2023-02-15T15:58:55.162Z,1.00
2023-02-15T16:01:37.107Z,1.00
2023-02-15T16:04:03.900Z,1.00
2023-02-15T16:06:53.661Z,14.30
2023-02-15T16:09:24.166Z,22.90
2023-02-15T16:12:02.727Z,28.80
2023-02-15T16:14:52.786Z,37.60
2023-02-15T16:17:23.581Z,55.00
2023-02-15T16:19:51.869Z,60.10
2023-02-15T16:22:25.724Z,67.50
2023-02-15T16:25:19.057Z,71.70
2023-02-15T16:27:47.792Z,72.60
2023-02-15T16:30:23.462Z,81.70
2023-02-15T16:32:53.560Z,89.50
2023-02-15T16:35:21.952Z,93.50
2023-02-15T16:37:49.146Z,94.20
2023-02-15T16:40:39.531Z,98.10
2023-02-15T16:43:12.658Z,99.90
2023-02-15T16:45:39.914Z,99.90
2023-02-15T16:48:13.596Z,99.90
2023-02-15T16:50:40.865Z,99.90
2023-02-15T16:53:17.323Z,99.90
2023-02-15T16:55:44.260Z,99.90
2023-02-15T16:58:17.368Z,99.90
2023-02-15T17:00:45.131Z,99.90
2023-02-15T17:03:15.053Z,99.90
2023-02-15T17:05:45.834Z,99.90
2023-02-15T17:08:20.569Z,99.90
2023-02-15T17:11:05.604Z,99.90
2023-02-15T17:13:32.774Z,99.90
2023-02-15T17:15:59.560Z,99.90
2023-02-15T17:18:39.415Z,99.90
2023-02-15T17:21:21.788Z,99.90
2023-02-15T17:23:51.054Z,99.90
2023-02-15T17:26:27.929Z,99.90
2023-02-15T17:28:57.681Z,99.90
2023-02-15T17:31:29.570Z,99.90
2023-02-15T17:33:57.672Z,99.90
2023-02-15T17:36:29.576Z,99.90
2023-02-15T17:38:59.359Z,99.90
2023-02-15T17:41:28.380Z,99.90
2023-02-15T17:43:55.181Z,99.90
2023-02-15T17:46:25.142Z,99.90
2023-02-15T17:48:54.730Z,99.90
2023-02-15T17:51:22.290Z,99.90
2023-02-15T17:54:08.496Z,99.90
2023-02-15T17:56:37.250Z,99.90
2023-02-15T17:59:08.051Z,99.90
2023-02-15T18:01:55.886Z,99.90
2023-02-15T18:04:41.899Z,99.90
2023-02-15T18:07:32.347Z,99.90
2023-02-15T18:10:17.885Z,99.90
2023-02-15T18:12:44.634Z,99.90
2023-02-15T18:15:13.219Z,99.90
2023-02-15T18:17:45.913Z,99.90
2023-02-15T18:20:24.463Z,99.90
2023-02-15T18:22:52.479Z,99.90
2023-02-15T18:25:21.260Z,99.90
2023-02-15T18:27:47.994Z,99.90
2023-02-15T18:30:20.344Z,99.90
2023-02-15T18:32:51.298Z,99.90
2023-02-15T18:35:21.338Z,99.90
2023-02-15T18:37:49.732Z,99.90
2023-02-15T18:40:18.586Z,99.90
2023-02-15T18:42:48.093Z,99.90
2023-02-15T18:45:25.158Z,99.90
2023-02-15T18:47:52.299Z,99.90
2023-02-15T18:50:21.670Z,99.90
2023-02-15T18:52:51.573Z,99.90
2023-02-15T18:55:21.412Z,99.90
2023-02-15T18:57:49.954Z,99.90
2023-02-15T19:00:20.567Z,99.90
2023-02-15T19:02:47.560Z,99.90
2023-02-15T19:05:14.996Z,99.90
2023-02-15T19:07:43.680Z,99.90
2023-02-15T19:10:18.723Z,99.90
2023-02-15T19:12:45.910Z,99.90
2023-02-15T19:15:21.874Z,99.90
2023-02-15T19:17:49.060Z,99.90
2023-02-15T19:20:19.225Z,99.90
2023-02-15T19:22:47.969Z,99.90
2023-02-15T19:25:24.998Z,99.90
2023-02-15T19:27:53.027Z,99.90
2023-02-15T19:30:29.996Z,99.90
2023-02-15T19:32:57.829Z,99.90
2023-02-15T19:35:28.044Z,99.90
2023-02-15T19:37:57.480Z,99.90
2023-02-15T19:40:27.149Z,99.90
2023-02-15T19:42:54.753Z,99.90
2023-02-15T19:45:26.811Z,99.90
2023-02-15T19:47:56.556Z,99.90
2023-02-15T19:50:26.183Z,99.90
2023-02-15T19:52:53.383Z,99.90
2023-02-15T19:55:29.313Z,99.90
2023-02-15T19:57:57.824Z,99.90
2023-02-15T20:00:31.163Z,99.90
2023-02-15T20:02:59.436Z,99.90
2023-02-15T20:05:28.993Z,99.90
2023-02-15T20:07:56.454Z,99.90
2023-02-15T20:10:28.580Z,99.90
2023-02-15T20:12:55.704Z,99.90
2023-02-15T20:15:24.424Z,99.90
2023-02-15T20:17:52.453Z,99.90
2023-02-15T20:20:22.796Z,99.90
2023-02-15T20:22:56.294Z,99.90
2023-02-15T20:25:27.811Z,99.90
2023-02-15T20:27:55.135Z,99.90
2023-02-15T20:30:24.906Z,99.90
2023-02-15T20:32:51.942Z,99.90
2023-02-15T20:35:22.671Z,99.90
2023-02-15T20:37:53.621Z,99.90
2023-02-15T20:40:24.047Z,99.90
2023-02-15T20:42:50.914Z,99.90
2023-02-15T20:45:30.454Z,99.90
2023-02-15T20:47:57.854Z,99.90
2023-02-15T20:50:35.455Z,99.90
2023-02-15T20:53:02.902Z,99.90
2023-02-15T20:55:31.552Z,99.90
2023-02-15T20:57:59.196Z,99.90
2023-02-15T21:00:31.956Z,99.90
2023-02-15T21:03:00.668Z,99.90
2023-02-15T21:05:33.550Z,99.90
2023-02-15T21:08:00.980Z,99.90
2023-02-15T21:10:31.664Z,99.90
2023-02-15T21:13:01.656Z,99.90
2023-02-15T21:15:35.831Z,99.90
2023-02-15T21:18:06.079Z,99.90
2023-02-15T21:20:35.143Z,99.90
2023-02-15T21:23:05.029Z,99.90
2023-02-15T21:25:38.527Z,99.90
2023-02-15T21:28:06.928Z,99.90
2023-02-15T21:30:33.743Z,99.90
2023-02-15T21:33:00.475Z,99.90
2023-02-15T21:35:28.804Z,99.90
2023-02-15T21:37:56.280Z,99.90
2023-02-15T21:40:27.726Z,99.90
2023-02-15T21:43:13.707Z,99.90
2023-02-15T21:46:16.093Z,99.90
2023-02-15T21:48:43.070Z,99.90
2023-02-15T21:51:28.751Z,99.90
2023-02-15T21:53:55.766Z,99.90
2023-02-15T21:56:24.418Z,99.90
2023-02-15T21:58:51.462Z,99.90
2023-02-15T22:01:26.892Z,99.90
2023-02-15T22:03:55.900Z,99.90
2023-02-15T22:06:23.372Z,99.90
2023-02-15T22:08:50.214Z,99.90
2023-02-15T22:11:22.591Z,99.90
2023-02-15T22:13:50.423Z,99.90
2023-02-15T22:16:22.704Z,99.90
2023-02-15T22:18:49.749Z,99.90
2023-02-15T22:21:21.078Z,99.90
2023-02-15T22:23:47.802Z,99.90
2023-02-15T22:26:24.146Z,99.90
2023-02-15T22:28:51.216Z,99.90
2023-02-15T22:31:21.252Z,97.40
2023-02-15T22:33:49.851Z,99.90
2023-02-15T22:36:30.672Z,96.80
2023-02-15T22:38:57.581Z,99.00
2023-02-15T22:41:28.409Z,96.70
2023-02-15T22:43:56.273Z,99.90
2023-02-15T22:46:24.806Z,97.70
2023-02-15T22:48:52.186Z,93.90
2023-02-15T22:51:21.567Z,96.00
2023-02-15T22:53:54.574Z,95.40
2023-02-15T22:56:38.823Z,99.90
2023-02-15T22:59:12.512Z,98.40
2023-02-15T23:01:39.315Z,99.90
2023-02-15T23:04:06.149Z,99.90
2023-02-15T23:06:34.442Z,99.90
2023-02-15T23:09:01.450Z,99.90
2023-02-15T23:11:28.884Z,99.90
2023-02-15T23:13:56.094Z,99.90
2023-02-15T23:16:22.885Z,99.90
2023-02-15T23:18:50.100Z,99.90
2023-02-15T23:21:16.909Z,99.90
2023-02-15T23:23:46.010Z,99.90
2023-02-15T23:26:23.070Z,99.90
2023-02-15T23:28:51.007Z,99.90
2023-02-15T23:31:30.309Z,99.90
2023-02-15T23:33:59.282Z,99.90
2023-02-15T23:36:26.458Z,99.90
2023-02-15T23:38:55.412Z,99.90
2023-02-15T23:41:28.743Z,99.90
2023-02-15T23:43:58.530Z,99.90
2023-02-15T23:46:30.892Z,99.90
2023-02-15T23:48:57.915Z,99.90
2023-02-15T23:51:30.815Z,99.90
2023-02-15T23:53:58.015Z,99.90
2023-02-15T23:56:24.702Z,99.90
2023-02-15T23:58:51.450Z,99.90
